sensor_id;sensor_type;location;lat;lon;timestamp;pressure;altitude;pressure_sealevel;temperature;humidity
72721;BME280;60835;50.974;10.322;2023-08-20T00:01:26;96615.97;;;21.89;100.00
72721;BME280;60835;50.974;10.322;2023-08-20T00:03:54;96593.34;;;21.95;100.00
72721;BME280;60835;50.974;10.322;2023-08-20T00:06:21;96583.13;;;21.92;100.00
72721;BME280;60835;50.974;10.322;2023-08-20T00:08:48;96577.44;;;21.68;100.00
72721;BME280;60835;50.974;10.322;2023-08-20T00:11:16;96547.28;;;21.76;100.00
72721;BME280;60835;50.974;10.322;2023-08-20T00:13:43;96527.38;;;21.77;100.00
72721;BME280;60835;50.974;10.322;2023-08-20T00:16:11;96525.25;;;21.64;100.00
72721;BME280;60835;50.974;10.322;2023-08-20T00:18:38;96515.56;;;21.63;100.00
72721;BME280;60835;50.974;10.322;2023-08-20T00:21:08;96499.94;;;21.55;100.00
72721;BME280;60835;50.974;10.322;2023-08-20T00:23:36;96499.97;;;21.50;100.00
72721;BME280;60835;50.974;10.322;2023-08-20T00:26:03;96468.22;;;21.52;100.00
72721;BME280;60835;50.974;10.322;2023-08-20T00:28:30;96460.69;;;21.44;100.00
72721;BME280;60835;50.974;10.322;2023-08-20T00:31:00;96451.00;;;21.43;100.00
72721;BME280;60835;50.974;10.322;2023-08-20T00:33:27;96431.66;;;21.31;100.00
72721;BME280;60835;50.974;10.322;2023-08-20T00:35:54;96429.22;;;21.30;100.00
72721;BME280;60835;50.974;10.322;2023-08-20T00:38:20;96420.34;;;21.24;100.00
72721;BME280;60835;50.974;10.322;2023-08-20T00:40:47;96408.25;;;21.27;100.00
72721;BME280;60835;50.974;10.322;2023-08-20T00:43:13;96395.09;;;21.30;100.00
72721;BME280;60835;50.974;10.322;2023-08-20T00:45:40;96385.66;;;21.33;100.00
72721;BME280;60835;50.974;10.322;2023-08-20T00:48:07;96395.59;;;21.32;100.00
72721;BME280;60835;50.974;10.322;2023-08-20T00:50:39;96391.84;;;21.33;100.00
72721;BME280;60835;50.974;10.322;2023-08-20T00:53:08;96410.66;;;21.38;100.00
72721;BME280;60835;50.974;10.322;2023-08-20T00:55:36;96414.97;;;21.24;100.00
72721;BME280;60835;50.974;10.322;2023-08-20T00:58:04;96419.53;;;21.23;100.00
72721;BME280;60835;50.974;10.322;2023-08-20T01:00:31;96428.94;;;21.26;100.00
72721;BME280;60835;50.974;10.322;2023-08-20T01:02:58;96436.78;;;21.07;100.00
72721;BME280;60835;50.974;10.322;2023-08-20T01:05:25;96421.41;;;20.98;100.00
72721;BME280;60835;50.974;10.322;2023-08-20T01:08:00;96404.22;;;21.04;100.00
72721;BME280;60835;50.974;10.322;2023-08-20T01:10:47;96400.44;;;21.05;100.00
72721;BME280;60835;50.974;10.322;2023-08-20T01:13:19;96394.28;;;21.04;100.00
72721;BME280;60835;50.974;10.322;2023-08-20T01:15:45;96395.88;;;21.05;100.00
72721;BME280;60835;50.974;10.322;2023-08-20T01:18:12;96398.34;;;21.07;100.00
72721;BME280;60835;50.974;10.322;2023-08-20T01:20:55;96409.59;;;20.94;100.00
72721;BME280;60835;50.974;10.322;2023-08-20T01:28:43;96389.69;;;21.05;100.00
72721;BME280;60835;50.974;10.322;2023-08-20T01:31:12;96396.69;;;20.96;100.00
72721;BME280;60835;50.974;10.322;2023-08-20T01:33:39;96410.91;;;20.81;100.00
72721;BME280;60835;50.974;10.322;2023-08-20T01:36:09;96414.97;;;20.89;100.00
72721;BME280;60835;50.974;10.322;2023-08-20T01:38:38;96412.81;;;20.86;100.00
72721;BME280;60835;50.974;10.322;2023-08-20T01:41:05;96415.75;;;20.89;100.00
72721;BME280;60835;50.974;10.322;2023-08-20T01:43:31;96441.28;;;20.77;100.00
72721;BME280;60835;50.974;10.322;2023-08-20T01:45:59;96439.13;;;20.69;100.00
72721;BME280;60835;50.974;10.322;2023-08-20T01:48:26;96436.41;;;20.63;100.00
72721;BME280;60835;50.974;10.322;2023-08-20T01:50:52;96431.06;;;20.63;100.00
72721;BME280;60835;50.974;10.322;2023-08-20T01:53:19;96419.25;;;20.70;100.00
72721;BME280;60835;50.974;10.322;2023-08-20T01:55:46;96423.00;;;20.69;100.00
72721;BME280;60835;50.974;10.322;2023-08-20T01:58:13;96431.34;;;20.77;100.00
72721;BME280;60835;50.974;10.322;2023-08-20T02:00:40;96429.47;;;20.73;100.00
72721;BME280;60835;50.974;10.322;2023-08-20T02:03:07;96444.50;;;20.79;100.00
72721;BME280;60835;50.974;10.322;2023-08-20T02:05:33;96438.06;;;20.75;100.00
72721;BME280;60835;50.974;10.322;2023-08-20T02:08:00;96455.81;;;20.76;100.00
72721;BME280;60835;50.974;10.322;2023-08-20T02:10:26;96460.38;;;20.75;100.00
72721;BME280;60835;50.974;10.322;2023-08-20T02:12:53;96471.13;;;20.80;100.00
72721;BME280;60835;50.974;10.322;2023-08-20T02:15:20;96502.50;;;20.59;100.00
72721;BME280;60835;50.974;10.322;2023-08-20T02:17:46;96496.03;;;20.50;100.00
72721;BME280;60835;50.974;10.322;2023-08-20T02:20:13;96487.97;;;20.50;100.00
72721;BME280;60835;50.974;10.322;2023-08-20T02:22:40;96483.91;;;20.43;100.00
72721;BME280;60835;50.974;10.322;2023-08-20T02:25:07;96472.34;;;20.32;100.00
72721;BME280;60835;50.974;10.322;2023-08-20T02:27:33;96465.84;;;20.28;100.00
72721;BME280;60835;50.974;10.322;2023-08-20T02:30:00;97207.00;;;20.12;100.00
72721;BME280;60835;50.974;10.322;2023-08-20T02:32:27;97199.34;;;20.20;100.00
72721;BME280;60835;50.974;10.322;2023-08-20T02:34:54;97177.84;;;20.20;100.00
72721;BME280;60835;50.974;10.322;2023-08-20T02:37:20;97167.81;;;20.27;100.00
72721;BME280;60835;50.974;10.322;2023-08-20T02:39:47;97152.50;;;20.28;100.00
72721;BME280;60835;50.974;10.322;2023-08-20T02:42:13;97152.19;;;20.24;100.00
72721;BME280;60835;50.974;10.322;2023-08-20T02:44:40;97163.50;;;20.26;100.00
72721;BME280;60835;50.974;10.322;2023-08-20T02:47:06;97159.66;;;20.22;100.00
72721;BME280;60835;50.974;10.322;2023-08-20T02:49:33;97173.00;;;20.17;100.00
72721;BME280;60835;50.974;10.322;2023-08-20T02:52:00;97174.13;;;20.21;100.00
72721;BME280;60835;50.974;10.322;2023-08-20T02:54:27;97172.75;;;20.19;100.00
72721;BME280;60835;50.974;10.322;2023-08-20T02:56:55;97176.72;;;20.16;100.00
72721;BME280;60835;50.974;10.322;2023-08-20T02:59:22;97182.94;;;20.17;100.00
72721;BME280;60835;50.974;10.322;2023-08-20T03:01:48;97195.59;;;20.04;100.00
72721;BME280;60835;50.974;10.322;2023-08-20T03:04:15;97187.56;;;20.21;100.00
72721;BME280;60835;50.974;10.322;2023-08-20T03:06:42;97189.69;;;20.19;100.00
72721;BME280;60835;50.974;10.322;2023-08-20T03:09:10;97207.81;;;20.12;100.00
72721;BME280;60835;50.974;10.322;2023-08-20T03:11:37;97208.63;;;20.13;100.00
72721;BME280;60835;50.974;10.322;2023-08-20T03:14:04;97215.84;;;20.12;100.00
72721;BME280;60835;50.974;10.322;2023-08-20T03:16:30;97225.38;;;20.03;100.00
72721;BME280;60835;50.974;10.322;2023-08-20T03:18:57;97226.84;;;19.94;100.00
72721;BME280;60835;50.974;10.322;2023-08-20T03:21:23;97216.44;;;19.97;100.00
72721;BME280;60835;50.974;10.322;2023-08-20T03:23:50;97228.47;;;19.95;100.00
72721;BME280;60835;50.974;10.322;2023-08-20T03:26:16;97215.63;;;19.97;100.00
72721;BME280;60835;50.974;10.322;2023-08-20T03:28:43;97211.97;;;20.03;100.00
72721;BME280;60835;50.974;10.322;2023-08-20T03:31:09;97180.31;;;19.88;100.00
72721;BME280;60835;50.974;10.322;2023-08-20T03:33:36;97211.41;;;20.01;100.00
72721;BME280;60835;50.974;10.322;2023-08-20T03:36:03;97204.72;;;20.03;100.00
72721;BME280;60835;50.974;10.322;2023-08-20T03:38:29;97211.72;;;20.04;100.00
72721;BME280;60835;50.974;10.322;2023-08-20T03:40:56;97217.91;;;20.05;100.00
72721;BME280;60835;50.974;10.322;2023-08-20T03:43:23;97236.03;;;19.98;100.00
72721;BME280;60835;50.974;10.322;2023-08-20T03:45:51;97234.97;;;19.99;100.00
72721;BME280;60835;50.974;10.322;2023-08-20T03:48:18;97230.75;;;20.03;100.00
72721;BME280;60835;50.974;10.322;2023-08-20T03:50:45;97231.81;;;20.02;100.00
72721;BME280;60835;50.974;10.322;2023-08-20T03:53:11;97223.53;;;20.03;100.00
72721;BME280;60835;50.974;10.322;2023-08-20T03:55:38;97226.22;;;20.03;100.00
72721;BME280;60835;50.974;10.322;2023-08-20T03:58:04;97247.19;;;19.90;100.00
72721;BME280;60835;50.974;10.322;2023-08-20T04:00:31;97252.38;;;19.80;100.00
72721;BME280;60835;50.974;10.322;2023-08-20T04:02:57;97254.47;;;19.78;100.00
72721;BME280;60835;50.974;10.322;2023-08-20T04:05:24;97248.00;;;19.90;100.00
72721;BME280;60835;50.974;10.322;2023-08-20T04:07:51;97233.19;;;20.04;100.00
72721;BME280;60835;50.974;10.322;2023-08-20T04:10:17;97248.97;;;19.84;100.00
72721;BME280;60835;50.974;10.322;2023-08-20T04:12:44;97250.72;;;19.79;100.00
72721;BME280;60835;50.974;10.322;2023-08-20T04:15:11;97258.59;;;19.69;100.00
72721;BME280;60835;50.974;10.322;2023-08-20T04:17:37;97267.50;;;19.58;100.00
72721;BME280;60835;50.974;10.322;2023-08-20T04:20:05;97217.34;;;19.18;100.00
72721;BME280;60835;50.974;10.322;2023-08-20T04:22:34;97245.84;;;19.48;100.00
72721;BME280;60835;50.974;10.322;2023-08-20T04:25:01;97228.56;;;19.55;100.00
72721;BME280;60835;50.974;10.322;2023-08-20T04:27:31;97213.59;;;19.59;100.00
72721;BME280;60835;50.974;10.322;2023-08-20T04:29:58;97207.53;;;19.64;100.00
72721;BME280;60835;50.974;10.322;2023-08-20T04:32:25;97201.53;;;19.73;100.00
72721;BME280;60835;50.974;10.322;2023-08-20T04:34:52;97196.75;;;19.92;100.00
72721;BME280;60835;50.974;10.322;2023-08-20T04:37:19;97216.19;;;19.99;100.00
72721;BME280;60835;50.974;10.322;2023-08-20T04:39:46;97229.13;;;19.85;100.00
72721;BME280;60835;50.974;10.322;2023-08-20T04:42:13;97246.94;;;20.08;100.00
72721;BME280;60835;50.974;10.322;2023-08-20T04:44:39;97272.50;;;20.11;100.00
72721;BME280;60835;50.974;10.322;2023-08-20T04:47:11;97293.84;;;20.17;100.00
72721;BME280;60835;50.974;10.322;2023-08-20T04:49:37;97296.47;;;20.29;100.00
72721;BME280;60835;50.974;10.322;2023-08-20T04:52:04;97325.53;;;20.32;100.00
72721;BME280;60835;50.974;10.322;2023-08-20T04:54:31;97362.41;;;20.08;100.00
72721;BME280;60835;50.974;10.322;2023-08-20T04:56:57;97371.41;;;20.02;100.00
72721;BME280;60835;50.974;10.322;2023-08-20T04:59:24;97401.25;;;19.77;100.00
72721;BME280;60835;50.974;10.322;2023-08-20T05:01:50;97396.94;;;19.76;100.00
72721;BME280;60835;50.974;10.322;2023-08-20T05:04:17;97403.59;;;19.74;100.00
72721;BME280;60835;50.974;10.322;2023-08-20T05:06:43;97384.44;;;19.82;100.00
72721;BME280;60835;50.974;10.322;2023-08-20T05:09:10;97373.22;;;19.85;100.00
72721;BME280;60835;50.974;10.322;2023-08-20T05:11:37;97372.88;;;19.81;100.00
72721;BME280;60835;50.974;10.322;2023-08-20T05:14:04;97367.25;;;19.94;100.00
72721;BME280;60835;50.974;10.322;2023-08-20T05:16:31;97365.47;;;20.00;100.00
72721;BME280;60835;50.974;10.322;2023-08-20T05:18:57;97356.06;;;20.14;100.00
72721;BME280;60835;50.974;10.322;2023-08-20T05:21:24;97361.44;;;20.42;100.00
72721;BME280;60835;50.974;10.322;2023-08-20T05:23:52;97387.59;;;20.63;100.00
72721;BME280;60835;50.974;10.322;2023-08-20T05:26:18;97421.56;;;20.70;100.00
72721;BME280;60835;50.974;10.322;2023-08-20T05:28:45;97468.88;;;20.71;100.00
72721;BME280;60835;50.974;10.322;2023-08-20T05:31:11;97487.63;;;20.82;100.00
72721;BME280;60835;50.974;10.322;2023-08-20T05:33:38;97509.19;;;20.99;100.00
72721;BME280;60835;50.974;10.322;2023-08-20T05:36:05;97553.44;;;21.08;100.00
72721;BME280;60835;50.974;10.322;2023-08-20T05:38:31;97590.06;;;21.09;100.00
72721;BME280;60835;50.974;10.322;2023-08-20T05:40:58;97616.00;;;21.15;100.00
72721;BME280;60835;50.974;10.322;2023-08-20T05:43:24;97643.28;;;21.07;100.00
72721;BME280;60835;50.974;10.322;2023-08-20T05:45:51;97653.41;;;21.16;100.00
72721;BME280;60835;50.974;10.322;2023-08-20T05:48:18;97655.97;;;21.23;100.00
72721;BME280;60835;50.974;10.322;2023-08-20T05:50:45;97662.53;;;21.44;100.00
72721;BME280;60835;50.974;10.322;2023-08-20T05:53:12;97692.06;;;21.55;100.00
72721;BME280;60835;50.974;10.322;2023-08-20T05:55:38;97727.63;;;21.29;100.00
72721;BME280;60835;50.974;10.322;2023-08-20T05:58:06;97723.72;;;21.65;100.00
72721;BME280;60835;50.974;10.322;2023-08-20T06:00:32;97751.13;;;21.62;100.00
72721;BME280;60835;50.974;10.322;2023-08-20T06:02:59;97741.34;;;22.01;100.00
72721;BME280;60835;50.974;10.322;2023-08-20T06:05:26;97769.38;;;22.33;100.00
72721;BME280;60835;50.974;10.322;2023-08-20T06:07:52;97813.97;;;22.57;100.00
72721;BME280;60835;50.974;10.322;2023-08-20T06:10:19;97883.53;;;21.99;100.00
72721;BME280;60835;50.974;10.322;2023-08-20T06:12:46;97877.13;;;21.76;100.00
72721;BME280;60835;50.974;10.322;2023-08-20T06:15:14;97829.44;;;22.17;100.00
72721;BME280;60835;50.974;10.322;2023-08-20T06:17:40;97854.38;;;22.40;100.00
72721;BME280;60835;50.974;10.322;2023-08-20T06:20:07;97857.19;;;22.95;100.00
72721;BME280;60835;50.974;10.322;2023-08-20T06:22:35;97902.53;;;23.70;100.00
72721;BME280;60835;50.974;10.322;2023-08-20T06:25:02;97998.44;;;23.51;100.00
72721;BME280;60835;50.974;10.322;2023-08-20T06:27:30;98067.41;;;24.13;100.00
72721;BME280;60835;50.974;10.322;2023-08-20T06:29:56;98092.22;;;24.92;100.00
72721;BME280;60835;50.974;10.322;2023-08-20T06:32:24;98185.44;;;24.63;100.00
72721;BME280;60835;50.974;10.322;2023-08-20T06:34:50;98195.56;;;24.51;100.00
72721;BME280;60835;50.974;10.322;2023-08-20T06:37:17;98211.56;;;24.91;100.00
72721;BME280;60835;50.974;10.322;2023-08-20T06:39:44;98217.75;;;25.56;100.00
72721;BME280;60835;50.974;10.322;2023-08-20T06:42:10;98261.03;;;25.29;100.00
72721;BME280;60835;50.974;10.322;2023-08-20T06:44:37;98297.53;;;25.05;100.00
72721;BME280;60835;50.974;10.322;2023-08-20T06:47:04;98272.56;;;24.65;100.00
72721;BME280;60835;50.974;10.322;2023-08-20T06:49:30;98259.84;;;24.65;100.00
72721;BME280;60835;50.974;10.322;2023-08-20T06:51:57;98256.94;;;24.34;100.00
72721;BME280;60835;50.974;10.322;2023-08-20T06:54:24;98256.47;;;25.13;100.00
72721;BME280;60835;50.974;10.322;2023-08-20T06:56:50;98306.31;;;26.04;100.00
72721;BME280;60835;50.974;10.322;2023-08-20T06:59:17;98373.28;;;25.82;100.00
72721;BME280;60835;50.974;10.322;2023-08-20T07:01:45;98339.84;;;25.98;100.00
72721;BME280;60835;50.974;10.322;2023-08-20T07:04:12;98393.28;;;26.24;100.00
72721;BME280;60835;50.974;10.322;2023-08-20T07:06:39;98412.31;;;25.81;100.00
72721;BME280;60835;50.974;10.322;2023-08-20T07:09:05;98368.69;;;26.31;100.00
72721;BME280;60835;50.974;10.322;2023-08-20T07:11:32;98388.66;;;25.98;100.00
72721;BME280;60835;50.974;10.322;2023-08-20T07:13:59;98403.69;;;26.32;100.00
72721;BME280;60835;50.974;10.322;2023-08-20T07:16:25;98408.16;;;25.73;100.00
72721;BME280;60835;50.974;10.322;2023-08-20T07:18:52;98395.34;;;25.69;100.00
72721;BME280;60835;50.974;10.322;2023-08-20T07:21:19;98382.50;;;25.81;100.00
72721;BME280;60835;50.974;10.322;2023-08-20T07:23:46;98389.56;;;26.30;100.00
72721;BME280;60835;50.974;10.322;2023-08-20T07:26:12;98423.59;;;25.73;100.00
72721;BME280;60835;50.974;10.322;2023-08-20T07:28:40;98385.16;;;25.76;100.00
72721;BME280;60835;50.974;10.322;2023-08-20T07:31:28;98387.47;;;25.67;100.00
72721;BME280;60835;50.974;10.322;2023-08-20T07:33:56;98406.34;;;25.07;100.00
72721;BME280;60835;50.974;10.322;2023-08-20T07:36:29;98397.03;;;25.36;100.00
72721;BME280;60835;50.974;10.322;2023-08-20T07:38:56;98399.22;;;25.18;100.00
72721;BME280;60835;50.974;10.322;2023-08-20T07:41:22;98388.50;;;25.44;100.00
72721;BME280;60835;50.974;10.322;2023-08-20T07:43:50;98374.34;;;26.02;100.00
72721;BME280;60835;50.974;10.322;2023-08-20T07:46:18;98400.81;;;25.95;100.00
72721;BME280;60835;50.974;10.322;2023-08-20T07:48:45;98398.72;;;26.78;100.00
72721;BME280;60835;50.974;10.322;2023-08-20T07:51:11;98451.75;;;26.90;100.00
72721;BME280;60835;50.974;10.322;2023-08-20T07:53:38;98459.59;;;27.18;100.00
72721;BME280;60835;50.974;10.322;2023-08-20T07:56:05;98478.66;;;26.92;100.00
72721;BME280;60835;50.974;10.322;2023-08-20T07:58:31;98500.81;;;26.57;100.00
72721;BME280;60835;50.974;10.322;2023-08-20T08:00:58;98506.94;;;26.04;100.00
72721;BME280;60835;50.974;10.322;2023-08-20T08:03:26;98463.00;;;25.64;100.00
72721;BME280;60835;50.974;10.322;2023-08-20T08:05:56;98471.25;;;26.12;100.00
72721;BME280;60835;50.974;10.322;2023-08-20T08:08:23;98486.44;;;25.91;100.00
72721;BME280;60835;50.974;10.322;2023-08-20T08:10:50;98464.94;;;25.47;100.00
72721;BME280;60835;50.974;10.322;2023-08-20T08:13:21;98460.34;;;25.85;100.00
72721;BME280;60835;50.974;10.322;2023-08-20T08:15:49;98472.00;;;25.48;100.00
72721;BME280;60835;50.974;10.322;2023-08-20T08:18:16;98472.88;;;25.53;100.00
72721;BME280;60835;50.974;10.322;2023-08-20T08:20:42;98462.38;;;25.57;100.00
72721;BME280;60835;50.974;10.322;2023-08-20T08:23:09;98459.84;;;25.00;100.00
72721;BME280;60835;50.974;10.322;2023-08-20T08:25:36;98433.16;;;25.42;100.00
72721;BME280;60835;50.974;10.322;2023-08-20T08:28:04;98448.59;;;25.80;100.00
72721;BME280;60835;50.974;10.322;2023-08-20T08:30:31;98513.34;;;25.98;100.00
72721;BME280;60835;50.974;10.322;2023-08-20T08:32:59;98530.69;;;25.59;100.00
72721;BME280;60835;50.974;10.322;2023-08-20T08:35:25;98547.50;;;26.59;100.00
72721;BME280;60835;50.974;10.322;2023-08-20T08:37:52;98573.06;;;26.41;100.00
72721;BME280;60835;50.974;10.322;2023-08-20T08:40:20;98571.06;;;25.77;100.00
72721;BME280;60835;50.974;10.322;2023-08-20T08:42:49;98539.41;;;26.42;100.00
72721;BME280;60835;50.974;10.322;2023-08-20T08:45:21;98601.91;;;26.26;100.00
72721;BME280;60835;50.974;10.322;2023-08-20T08:47:48;98578.88;;;26.28;100.00
72721;BME280;60835;50.974;10.322;2023-08-20T08:50:15;98556.13;;;25.58;100.00
72721;BME280;60835;50.974;10.322;2023-08-20T08:52:44;98552.75;;;26.22;100.00
72721;BME280;60835;50.974;10.322;2023-08-20T08:55:12;98566.22;;;26.82;100.00
72721;BME280;60835;50.974;10.322;2023-08-20T08:57:39;98589.25;;;25.98;100.00
72721;BME280;60835;50.974;10.322;2023-08-20T09:00:06;98585.09;;;25.90;100.00
72721;BME280;60835;50.974;10.322;2023-08-20T09:02:33;98591.72;;;27.03;100.00
72721;BME280;60835;50.974;10.322;2023-08-20T09:05:00;98590.63;;;26.55;100.00
72721;BME280;60835;50.974;10.322;2023-08-20T09:07:26;98580.66;;;26.39;100.00
72721;BME280;60835;50.974;10.322;2023-08-20T09:09:58;98593.44;;;26.44;100.00
72721;BME280;60835;50.974;10.322;2023-08-20T09:12:26;98601.34;;;26.89;100.00
72721;BME280;60835;50.974;10.322;2023-08-20T09:14:53;98600.72;;;26.82;100.00
72721;BME280;60835;50.974;10.322;2023-08-20T09:17:25;98620.91;;;26.47;100.00
72721;BME280;60835;50.974;10.322;2023-08-20T09:19:56;98628.66;;;26.39;100.00
72721;BME280;60835;50.974;10.322;2023-08-20T09:22:24;98590.38;;;26.19;100.00
72721;BME280;60835;50.974;10.322;2023-08-20T09:24:55;98609.91;;;26.59;100.00
72721;BME280;60835;50.974;10.322;2023-08-20T09:27:23;98603.59;;;26.97;100.00
72721;BME280;60835;50.974;10.322;2023-08-20T09:29:56;98627.56;;;26.61;100.00
72721;BME280;60835;50.974;10.322;2023-08-20T09:32:27;98614.72;;;26.52;100.00
72721;BME280;60835;50.974;10.322;2023-08-20T09:34:55;98597.72;;;25.35;100.00
72721;BME280;60835;50.974;10.322;2023-08-20T09:37:24;98561.94;;;26.43;100.00
72721;BME280;60835;50.974;10.322;2023-08-20T09:39:51;98591.91;;;26.75;100.00
72721;BME280;60835;50.974;10.322;2023-08-20T09:42:18;98639.38;;;25.95;100.00
72721;BME280;60835;50.974;10.322;2023-08-20T09:44:46;98590.53;;;26.72;100.00
72721;BME280;60835;50.974;10.322;2023-08-20T09:47:18;98638.53;;;26.72;100.00
72721;BME280;60835;50.974;10.322;2023-08-20T09:49:46;98629.91;;;26.75;100.00
72721;BME280;60835;50.974;10.322;2023-08-20T09:52:21;98634.44;;;26.69;100.00
72721;BME280;60835;50.974;10.322;2023-08-20T09:55:00;98628.16;;;26.42;100.00
72721;BME280;60835;50.974;10.322;2023-08-20T09:57:41;98602.56;;;26.16;100.00
72721;BME280;60835;50.974;10.322;2023-08-20T10:00:12;98603.50;;;26.27;100.00
72721;BME280;60835;50.974;10.322;2023-08-20T10:02:41;98615.06;;;27.04;100.00
72721;BME280;60835;50.974;10.322;2023-08-20T10:05:09;98627.78;;;27.52;100.00
72721;BME280;60835;50.974;10.322;2023-08-20T10:07:37;98652.47;;;27.45;100.00
72721;BME280;60835;50.974;10.322;2023-08-20T10:10:05;98645.91;;;27.19;100.00
72721;BME280;60835;50.974;10.322;2023-08-20T10:12:33;98626.25;;;27.34;100.00
72721;BME280;60835;50.974;10.322;2023-08-20T10:15:01;98655.72;;;28.06;100.00
72721;BME280;60835;50.974;10.322;2023-08-20T10:17:32;98658.34;;;29.97;100.00
72721;BME280;60835;50.974;10.322;2023-08-20T10:20:04;98674.84;;;30.71;100.00
72721;BME280;60835;50.974;10.322;2023-08-20T10:22:42;98685.28;;;30.34;100.00
72721;BME280;60835;50.974;10.322;2023-08-20T10:25:12;98689.66;;;30.45;100.00
72721;BME280;60835;50.974;10.322;2023-08-20T10:27:40;98653.28;;;32.06;100.00
72721;BME280;60835;50.974;10.322;2023-08-20T10:30:17;99186.94;;;31.41;100.00
72721;BME280;60835;50.974;10.322;2023-08-20T10:32:56;99091.22;;;31.91;100.00
72721;BME280;60835;50.974;10.322;2023-08-20T10:35:28;99009.25;;;31.05;100.00
72721;BME280;60835;50.974;10.322;2023-08-20T10:40:48;98955.84;;;32.37;100.00
72721;BME280;60835;50.974;10.322;2023-08-20T10:43:40;99261.75;;;32.42;100.00
72721;BME280;60835;50.974;10.322;2023-08-20T10:46:22;99078.47;;;30.49;100.00
72721;BME280;60835;50.974;10.322;2023-08-20T10:48:57;99243.34;;;32.73;100.00
72721;BME280;60835;50.974;10.322;2023-08-20T10:51:37;99167.31;;;31.84;100.00
72721;BME280;60835;50.974;10.322;2023-08-20T10:54:06;99187.31;;;33.04;100.00
72721;BME280;60835;50.974;10.322;2023-08-20T11:01:44;99324.19;;;33.64;100.00
72721;BME280;60835;50.974;10.322;2023-08-20T11:04:13;98960.50;;;30.42;100.00
72721;BME280;60835;50.974;10.322;2023-08-20T11:06:42;99245.34;;;33.26;100.00
72721;BME280;60835;50.974;10.322;2023-08-20T11:09:09;99337.03;;;34.23;100.00
72721;BME280;60835;50.974;10.322;2023-08-20T11:11:38;99374.78;;;33.33;100.00
72721;BME280;60835;50.974;10.322;2023-08-20T11:14:08;99165.41;;;31.94;100.00
72721;BME280;60835;50.974;10.322;2023-08-20T11:16:35;99278.00;;;33.77;100.00
72721;BME280;60835;50.974;10.322;2023-08-20T11:19:04;99001.00;;;31.35;100.00
72721;BME280;60835;50.974;10.322;2023-08-20T11:21:37;99046.88;;;32.04;100.00
72721;BME280;60835;50.974;10.322;2023-08-20T11:24:05;99008.94;;;31.42;100.00
72721;BME280;60835;50.974;10.322;2023-08-20T11:26:33;99272.28;;;34.41;100.00
72721;BME280;60835;50.974;10.322;2023-08-20T11:29:07;99386.81;;;35.36;100.00
72721;BME280;60835;50.974;10.322;2023-08-20T11:31:35;99342.44;;;34.33;100.00
72721;BME280;60835;50.974;10.322;2023-08-20T11:34:03;99240.41;;;33.77;100.00
72721;BME280;60835;50.974;10.322;2023-08-20T11:36:30;99367.69;;;34.98;100.00
72721;BME280;60835;50.974;10.322;2023-08-20T11:38:57;99287.59;;;33.25;100.00
72721;BME280;60835;50.974;10.322;2023-08-20T11:41:24;99129.00;;;31.59;100.00
72721;BME280;60835;50.974;10.322;2023-08-20T11:43:52;99249.06;;;34.28;100.00
72721;BME280;60835;50.974;10.322;2023-08-20T11:46:23;99393.09;;;35.66;100.00
72721;BME280;60835;50.974;10.322;2023-08-20T11:49:00;99362.34;;;34.15;100.00
72721;BME280;60835;50.974;10.322;2023-08-20T11:51:27;99257.03;;;32.73;100.00
72721;BME280;60835;50.974;10.322;2023-08-20T11:53:54;99071.53;;;31.89;100.00
72721;BME280;60835;50.974;10.322;2023-08-20T11:56:21;99080.91;;;32.52;100.00
72721;BME280;60835;50.974;10.322;2023-08-20T11:58:52;99272.50;;;33.77;100.00
72721;BME280;60835;50.974;10.322;2023-08-20T12:01:19;99318.97;;;32.79;100.00
72721;BME280;60835;50.974;10.322;2023-08-20T12:03:46;99318.47;;;33.51;100.00
72721;BME280;60835;50.974;10.322;2023-08-20T12:06:20;99431.81;;;36.54;100.00
72721;BME280;60835;50.974;10.322;2023-08-20T12:08:47;99206.19;;;32.11;100.00
72721;BME280;60835;50.974;10.322;2023-08-20T12:11:14;99316.25;;;34.07;100.00
72721;BME280;60835;50.974;10.322;2023-08-20T12:13:41;99309.66;;;33.64;100.00
72721;BME280;60835;50.974;10.322;2023-08-20T12:16:07;99278.34;;;33.70;100.00
72721;BME280;60835;50.974;10.322;2023-08-20T12:18:34;99395.78;;;35.23;100.00
72721;BME280;60835;50.974;10.322;2023-08-20T12:21:01;99361.31;;;34.01;100.00
72721;BME280;60835;50.974;10.322;2023-08-20T12:23:28;99339.72;;;33.84;100.00
72721;BME280;60835;50.974;10.322;2023-08-20T12:25:55;99252.13;;;32.60;100.00
72721;BME280;60835;50.974;10.322;2023-08-20T12:28:21;99227.34;;;33.05;100.00
72721;BME280;60835;50.974;10.322;2023-08-20T12:30:48;99364.31;;;35.06;100.00
72721;BME280;60835;50.974;10.322;2023-08-20T12:33:15;99477.53;;;37.25;100.00
72721;BME280;60835;50.974;10.322;2023-08-20T12:35:41;99367.84;;;34.15;100.00
72721;BME280;60835;50.974;10.322;2023-08-20T12:38:08;99433.81;;;34.49;100.00
72721;BME280;60835;50.974;10.322;2023-08-20T12:40:35;99344.47;;;33.68;100.00
72721;BME280;60835;50.974;10.322;2023-08-20T12:43:02;99421.88;;;34.68;100.00
72721;BME280;60835;50.974;10.322;2023-08-20T12:45:29;99494.97;;;37.06;100.00
72721;BME280;60835;50.974;10.322;2023-08-20T12:47:56;99482.63;;;36.48;100.00
72721;BME280;60835;50.974;10.322;2023-08-20T12:50:26;99414.28;;;35.18;100.00
72721;BME280;60835;50.974;10.322;2023-08-20T12:52:53;99464.75;;;36.45;100.00
72721;BME280;60835;50.974;10.322;2023-08-20T12:55:20;99484.78;;;36.88;100.00
72721;BME280;60835;50.974;10.322;2023-08-20T12:57:57;99413.66;;;34.19;100.00